Terminal Aerodrome Forecast
Issued by NWS Cleveland, OH

Home | Current Version | Previous Version | Text Only | Print | Product List | Glossary Off
Versions: 1 2 3 4 5 6 7 8 9 10 11 12 13 14 15 16 17 18 19 20 21 22

000
FTUS41 KCLE 181500 AAA
TAFMFD
TAF AMD
KMFD 181504Z 1815/1912 30012G20KT P6SM SCT025 OVC035
      TEMPO 1815/1818 -SHRA BKN025
     FM182300 32012KT P6SM SCT025 OVC050
     FM190400 30006KT P6SM SCT050 BKN100
     FM190600 31006KT P6SM SKC=

USA.gov is the U.S. government's official web portal to all federal, state and local government web resources and services.